Terminal Aerodrome Forecast
Issued by NWS

Home | Current Version | Previous Version | Text Only | Print | Product List | Glossary On
Versions: 1 2 3 4 5 6 7 8 9 10 11 12 13 14
000
FTUS41 KBTV 021121
TAFMPV
TAF
KMPV 021121Z 0212/0312 30006KT P6SM SCT030 SCT200
     FM021400 29008G15KT P6SM SCT045
     FM030000 VRB03KT P6SM SKC
     FM030700 00000KT 1SM BR BKN001=

USA.gov is the U.S. government's official web portal to all federal, state and local government web resources and services.